createdAt,value
2022-12-07T00:01:25.730Z,8.68
2022-12-07T00:04:14.457Z,9.68
2022-12-07T00:07:00.019Z,8.25
2022-12-07T00:09:45.304Z,7.85
2022-12-07T00:12:30.945Z,9.32
2022-12-07T00:15:16.530Z,8.77
2022-12-07T00:18:02.240Z,8.73
2022-12-07T00:20:47.680Z,8.20
2022-12-07T00:23:34.101Z,8.82
2022-12-07T00:26:24.988Z,9.98
2022-12-07T00:29:17.950Z,7.88
2022-12-07T00:32:03.924Z,9.70
2022-12-07T00:34:49.221Z,8.23
2022-12-07T00:37:34.909Z,9.13
2022-12-07T00:40:20.782Z,7.85
2022-12-07T00:43:06.245Z,8.88
2022-12-07T00:45:51.814Z,7.88
2022-12-07T00:48:37.907Z,8.77
2022-12-07T00:51:25.319Z,8.02
2022-12-07T00:54:11.151Z,8.50
2022-12-07T00:56:56.702Z,8.02
2022-12-07T00:59:42.282Z,7.95
2022-12-07T01:02:28.291Z,8.93
2022-12-07T01:05:13.894Z,8.60
2022-12-07T01:07:59.836Z,8.80
2022-12-07T01:10:45.472Z,8.65
2022-12-07T01:13:31.103Z,8.90
2022-12-07T01:16:18.199Z,9.93
2022-12-07T01:19:05.718Z,7.90
2022-12-07T01:21:51.174Z,9.18
2022-12-07T01:24:36.718Z,9.05
2022-12-07T01:27:22.952Z,9.02
2022-12-07T01:30:09.249Z,8.65
2022-12-07T01:32:55.722Z,9.52
2022-12-07T01:35:41.108Z,9.38
2022-12-07T01:38:26.788Z,8.70
2022-12-07T01:41:12.676Z,10.27
2022-12-07T01:44:19.405Z,10.07
2022-12-07T01:47:05.575Z,10.20
2022-12-07T01:49:51.336Z,8.65
2022-12-07T01:52:39.168Z,8.75
2022-12-07T01:55:25.146Z,9.48
2022-12-07T01:58:13.104Z,8.10
2022-12-07T02:00:58.503Z,9.25
2022-12-07T02:03:45.512Z,9.48
2022-12-07T02:06:31.474Z,10.13
2022-12-07T02:09:17.260Z,10.32
2022-12-07T02:12:03.591Z,10.63
2022-12-07T02:14:49.519Z,9.45
2022-12-07T02:17:53.066Z,8.95
2022-12-07T02:20:59.906Z,9.60
2022-12-07T02:24:10.200Z,8.48
2022-12-07T02:27:20.532Z,8.75
2022-12-07T02:30:21.607Z,8.70
2022-12-07T02:33:23.413Z,9.00
2022-12-07T02:36:26.642Z,8.27
2022-12-07T02:39:20.362Z,7.78
2022-12-07T02:44:57.279Z,8.65
2022-12-07T02:47:44.451Z,8.65
2022-12-07T02:50:29.977Z,9.32
2022-12-07T02:53:40.672Z,9.75
2022-12-07T02:56:44.694Z,10.10
2022-12-07T02:59:39.066Z,9.57
2022-12-07T03:02:45.623Z,9.15
2022-12-07T03:06:09.475Z,8.43
2022-12-07T03:09:04.099Z,8.20
2022-12-07T03:11:56.527Z,9.15
2022-12-07T03:14:56.503Z,8.98
2022-12-07T03:17:45.471Z,8.93
2022-12-07T03:20:33.548Z,9.50
2022-12-07T03:23:21.688Z,9.70
2022-12-07T03:26:09.996Z,9.32
2022-12-07T03:30:12.301Z,9.52
2022-12-07T03:33:15.095Z,9.30
2022-12-07T03:36:16.050Z,7.82
2022-12-07T03:39:03.956Z,8.25
2022-12-07T03:41:49.742Z,8.25
2022-12-07T03:44:36.818Z,8.30
2022-12-07T03:47:45.952Z,8.40
2022-12-07T03:50:41.848Z,8.63
2022-12-07T03:53:47.893Z,8.25
2022-12-07T03:56:34.448Z,9.07
2022-12-07T03:59:20.838Z,8.93
2022-12-07T04:02:07.911Z,9.02
2022-12-07T04:04:53.924Z,8.23
2022-12-07T04:07:39.242Z,9.48
2022-12-07T04:10:24.618Z,8.25
2022-12-07T04:13:10.265Z,7.50
2022-12-07T04:15:55.938Z,7.95
2022-12-07T04:18:41.427Z,8.52
2022-12-07T04:21:27.024Z,8.40
2022-12-07T04:24:14.842Z,9.13
2022-12-07T04:27:00.537Z,7.88
2022-12-07T04:29:45.833Z,9.68
2022-12-07T04:32:31.259Z,8.73
2022-12-07T04:35:16.790Z,8.68
2022-12-07T04:38:02.202Z,8.50
2022-12-07T04:40:47.464Z,10.02
2022-12-07T04:43:33.011Z,10.25
2022-12-07T04:46:18.389Z,10.48
2022-12-07T04:49:03.885Z,10.57
2022-12-07T04:51:49.503Z,9.93
2022-12-07T04:54:34.789Z,8.60
2022-12-07T04:57:20.347Z,9.25
2022-12-07T05:00:06.568Z,8.32
2022-12-07T05:02:51.774Z,8.80
2022-12-07T05:05:37.163Z,9.00
2022-12-07T05:08:22.770Z,8.43
2022-12-07T05:11:08.669Z,9.73
2022-12-07T05:13:53.789Z,9.18
2022-12-07T05:16:40.432Z,9.93
2022-12-07T05:19:27.158Z,8.85
2022-12-07T05:22:12.717Z,8.65
2022-12-07T05:24:58.024Z,9.00
2022-12-07T05:27:43.404Z,10.63
2022-12-07T05:30:29.386Z,8.75
2022-12-07T05:33:14.474Z,9.73
2022-12-07T05:35:59.777Z,9.05
2022-12-07T05:38:45.220Z,8.38
2022-12-07T05:41:49.042Z,8.68
2022-12-07T05:47:19.646Z,6.55
2022-12-07T05:50:06.613Z,7.63
2022-12-07T05:52:52.167Z,8.15
2022-12-07T05:55:37.802Z,7.60
2022-12-07T05:58:41.725Z,8.25
2022-12-07T06:01:27.597Z,8.98
2022-12-07T06:04:12.880Z,8.18
2022-12-07T06:06:58.910Z,8.20
2022-12-07T06:09:44.357Z,8.90
2022-12-07T06:12:35.563Z,7.80
2022-12-07T06:15:20.897Z,8.25
2022-12-07T06:18:06.453Z,7.80
2022-12-07T06:20:51.969Z,7.45
2022-12-07T06:23:37.555Z,7.28
2022-12-07T06:26:23.154Z,7.93
2022-12-07T06:29:08.479Z,8.27
2022-12-07T06:31:53.685Z,7.80
2022-12-07T06:34:39.070Z,7.50
2022-12-07T06:37:24.637Z,7.65
2022-12-07T06:40:10.547Z,8.52
2022-12-07T06:42:56.256Z,7.47
2022-12-07T06:45:42.538Z,7.60
2022-12-07T06:48:28.267Z,6.93
2022-12-07T06:51:13.841Z,6.65
2022-12-07T06:53:59.215Z,6.57
2022-12-07T06:56:45.019Z,7.28
2022-12-07T06:59:30.572Z,6.68
2022-12-07T07:02:16.096Z,7.50
2022-12-07T07:05:01.736Z,7.75
2022-12-07T07:08:20.119Z,7.13
2022-12-07T07:10:52.829Z,6.80
2022-12-07T07:13:39.025Z,7.70
2022-12-07T07:16:25.164Z,7.07
2022-12-07T07:19:10.713Z,7.95
2022-12-07T07:21:56.289Z,6.10
2022-12-07T07:24:41.858Z,7.18
2022-12-07T07:27:27.253Z,8.15
2022-12-07T07:30:13.187Z,7.80
2022-12-07T07:33:02.950Z,7.63
2022-12-07T07:35:48.366Z,8.05
2022-12-07T07:38:33.883Z,9.80
2022-12-07T07:41:19.050Z,6.63
2022-12-07T07:44:04.777Z,6.72
2022-12-07T07:46:50.295Z,7.07
2022-12-07T07:49:35.724Z,7.35
2022-12-07T07:52:21.299Z,7.00
2022-12-07T07:55:09.508Z,6.95
2022-12-07T07:57:55.323Z,7.38
2022-12-07T08:00:41.049Z,7.45
2022-12-07T08:03:26.971Z,6.38
2022-12-07T08:06:12.773Z,7.50
2022-12-07T08:08:59.171Z,7.47
2022-12-07T08:11:44.792Z,7.13
2022-12-07T08:14:30.296Z,7.03
2022-12-07T08:17:15.714Z,8.23
2022-12-07T08:20:01.386Z,8.00
2022-12-07T08:22:46.804Z,7.63
2022-12-07T08:25:32.994Z,7.03
2022-12-07T08:28:18.168Z,7.80
2022-12-07T08:31:06.770Z,7.43
2022-12-07T08:33:52.216Z,6.70
2022-12-07T08:36:38.389Z,7.18
2022-12-07T08:39:31.374Z,8.20
2022-12-07T08:45:03.664Z,7.15
2022-12-07T08:48:01.035Z,6.93
2022-12-07T08:50:49.728Z,7.45
2022-12-07T08:53:38.051Z,6.70
2022-12-07T08:56:23.812Z,7.40
2022-12-07T08:59:09.562Z,6.82
2022-12-07T09:01:55.523Z,7.35
2022-12-07T09:04:40.980Z,6.57
2022-12-07T09:07:27.290Z,7.20
2022-12-07T09:10:12.895Z,7.68
2022-12-07T09:13:01.788Z,7.22
2022-12-07T09:15:47.730Z,7.80
2022-12-07T09:18:33.303Z,6.63
2022-12-07T09:21:18.940Z,5.63
2022-12-07T09:24:05.168Z,6.05
2022-12-07T09:26:51.821Z,6.53
2022-12-07T09:29:38.168Z,6.47
2022-12-07T09:32:24.451Z,5.53
2022-12-07T09:35:10.920Z,6.30
2022-12-07T09:37:56.792Z,6.38
2022-12-07T09:40:44.761Z,6.93
2022-12-07T09:43:30.826Z,6.60
2022-12-07T09:46:20.102Z,6.57
2022-12-07T09:49:09.994Z,5.75
2022-12-07T09:52:19.965Z,6.32
2022-12-07T09:55:12.947Z,5.68
2022-12-07T09:57:59.706Z,5.75
2022-12-07T10:00:46.106Z,5.20
2022-12-07T10:03:32.447Z,4.72
2022-12-07T10:06:18.853Z,6.10
2022-12-07T10:09:14.280Z,5.32
2022-12-07T10:12:03.210Z,5.45
2022-12-07T10:15:08.534Z,4.85
2022-12-07T10:17:55.097Z,6.05
2022-12-07T10:20:41.075Z,5.90
2022-12-07T10:23:27.060Z,6.28
2022-12-07T10:26:34.922Z,6.55
2022-12-07T10:29:23.719Z,6.47
2022-12-07T10:32:15.597Z,6.30
2022-12-07T10:35:21.861Z,6.13
2022-12-07T10:38:17.842Z,5.82
2022-12-07T10:41:08.579Z,7.38
2022-12-07T10:43:57.237Z,8.55
2022-12-07T10:47:27.589Z,7.55
2022-12-07T10:50:28.534Z,6.00
2022-12-07T10:53:17.366Z,6.18
2022-12-07T10:56:15.424Z,6.60
2022-12-07T10:59:16.636Z,6.97
2022-12-07T11:02:41.134Z,6.53
2022-12-07T11:05:54.670Z,5.82
2022-12-07T11:08:41.204Z,6.32
2022-12-07T11:11:43.947Z,6.03
2022-12-07T11:14:41.861Z,6.05
2022-12-07T11:17:48.470Z,8.95
2022-12-07T11:20:47.607Z,7.07
2022-12-07T11:24:02.434Z,8.45
2022-12-07T11:27:36.287Z,8.45
2022-12-07T11:30:28.405Z,8.35
2022-12-07T11:33:30.761Z,9.10
2022-12-07T11:36:38.076Z,8.68
2022-12-07T11:39:48.933Z,7.75
2022-12-07T11:42:42.412Z,8.07
2022-12-07T11:45:32.436Z,7.95
2022-12-07T11:48:34.408Z,8.07
2022-12-07T11:51:23.549Z,7.57
2022-12-07T11:54:33.360Z,7.72
2022-12-07T11:57:33.643Z,8.07
2022-12-07T12:00:20.516Z,8.05
2022-12-07T12:03:13.827Z,7.72
2022-12-07T12:05:59.957Z,8.75
2022-12-07T12:15:32.188Z,8.85
2022-12-07T12:18:36.454Z,8.98
2022-12-07T12:21:28.697Z,7.65
2022-12-07T12:24:23.633Z,7.28
2022-12-07T12:27:19.136Z,8.00
2022-12-07T12:30:26.011Z,8.73
2022-12-07T12:33:28.408Z,8.80
2022-12-07T12:36:17.538Z,7.90
2022-12-07T12:39:09.729Z,8.40
2022-12-07T12:41:57.999Z,8.60
2022-12-07T12:45:05.544Z,6.82
2022-12-07T12:47:55.761Z,6.70
2022-12-07T12:50:41.521Z,7.82
2022-12-07T12:53:28.542Z,7.70
2022-12-07T12:56:24.755Z,8.10
2022-12-07T12:59:23.161Z,8.00
2022-12-07T13:02:17.804Z,7.30
2022-12-07T13:05:11.294Z,7.25
2022-12-07T13:07:58.910Z,6.95
2022-12-07T13:10:49.121Z,7.80
2022-12-07T13:13:36.749Z,6.78
2022-12-07T13:16:22.973Z,7.15
2022-12-07T13:19:47.156Z,8.05
2022-12-07T13:22:33.073Z,7.07
2022-12-07T13:25:21.580Z,7.85
2022-12-07T13:28:19.206Z,8.27
2022-12-07T13:31:21.203Z,8.10
2022-12-07T13:34:37.707Z,8.20
2022-12-07T13:37:31.478Z,7.13
2022-12-07T13:40:24.452Z,7.03
2022-12-07T13:43:16.417Z,7.78
2022-12-07T13:46:18.278Z,7.45
2022-12-07T13:49:17.914Z,6.05
2022-12-07T13:52:25.505Z,7.43
2022-12-07T13:55:18.573Z,5.80
2022-12-07T13:58:04.205Z,6.55
2022-12-07T14:00:53.626Z,6.22
2022-12-07T14:03:40.070Z,7.30
2022-12-07T14:06:29.517Z,5.97
2022-12-07T14:09:28.729Z,6.45
2022-12-07T14:12:17.364Z,5.53
2022-12-07T14:15:04.681Z,5.78
2022-12-07T14:17:56.159Z,5.38
2022-12-07T14:20:42.630Z,6.25
2022-12-07T14:23:28.983Z,5.70
2022-12-07T14:26:17.104Z,5.93
2022-12-07T14:29:29.505Z,5.00
2022-12-07T14:32:35.133Z,5.68
2022-12-07T14:35:22.046Z,5.60
2022-12-07T14:38:09.168Z,6.90
2022-12-07T14:41:15.794Z,5.05
2022-12-07T14:44:22.448Z,5.63
2022-12-07T14:50:19.479Z,5.68
2022-12-07T14:53:24.703Z,4.93
2022-12-07T14:56:10.843Z,4.97
2022-12-07T14:58:56.995Z,5.20
2022-12-07T15:01:42.643Z,4.78
2022-12-07T15:04:28.397Z,7.35
2022-12-07T15:07:23.575Z,6.22
2022-12-07T15:10:32.783Z,5.78
2022-12-07T15:13:37.280Z,7.15
2022-12-07T15:16:23.333Z,4.93
2022-12-07T15:19:33.628Z,4.78
2022-12-07T15:22:19.110Z,4.60
2022-12-07T15:25:05.699Z,4.75
2022-12-07T15:27:51.269Z,5.45
2022-12-07T15:30:38.992Z,6.25
2022-12-07T15:33:24.382Z,4.95
2022-12-07T15:36:22.396Z,6.57
2022-12-07T15:39:15.420Z,6.40
2022-12-07T15:42:01.271Z,6.03
2022-12-07T15:45:05.347Z,5.78
2022-12-07T15:51:29.240Z,6.43
2022-12-07T15:54:25.587Z,6.22
2022-12-07T15:57:11.157Z,6.25
2022-12-07T15:59:56.809Z,6.57
2022-12-07T16:02:42.135Z,6.10
2022-12-07T16:05:27.801Z,6.60
2022-12-07T16:08:14.290Z,6.90
2022-12-07T16:10:59.889Z,7.90
2022-12-07T16:13:45.409Z,7.53
2022-12-07T16:16:31.919Z,6.78
2022-12-07T16:19:17.617Z,6.47
2022-12-07T16:22:04.093Z,7.22
2022-12-07T16:24:49.465Z,6.95
2022-12-07T16:27:36.274Z,6.90
2022-12-07T16:30:23.374Z,6.32
2022-12-07T16:33:09.603Z,6.53
2022-12-07T16:35:55.333Z,5.97
2022-12-07T16:38:41.462Z,7.22
2022-12-07T16:41:26.914Z,7.00
2022-12-07T16:44:14.475Z,6.82
2022-12-07T16:47:01.846Z,7.07
2022-12-07T16:49:48.641Z,7.43
2022-12-07T16:52:34.066Z,8.07
2022-12-07T16:55:19.598Z,8.88
2022-12-07T16:58:04.708Z,7.43
2022-12-07T17:00:50.389Z,7.05
2022-12-07T17:03:35.829Z,7.97
2022-12-07T17:06:26.549Z,6.95
2022-12-07T17:09:17.742Z,7.72
2022-12-07T17:12:07.416Z,7.65
2022-12-07T17:15:31.272Z,8.65
2022-12-07T17:18:16.559Z,7.32
2022-12-07T17:21:07.386Z,7.85
2022-12-07T17:23:52.828Z,7.32
2022-12-07T17:26:39.762Z,7.55
2022-12-07T17:29:25.549Z,7.22
2022-12-07T17:32:11.023Z,6.63
2022-12-07T17:34:56.632Z,6.43
2022-12-07T17:37:44.899Z,6.60
2022-12-07T17:40:34.592Z,7.35
2022-12-07T17:43:20.231Z,7.35
2022-12-07T17:46:10.120Z,7.40
2022-12-07T17:48:56.420Z,8.23
2022-12-07T17:52:00.708Z,8.38
2022-12-07T17:54:46.366Z,8.35
2022-12-07T17:57:31.954Z,8.70
2022-12-07T18:00:23.731Z,6.22
2022-12-07T18:03:10.887Z,7.43
2022-12-07T18:05:56.591Z,6.75
2022-12-07T18:08:42.112Z,9.18
2022-12-07T18:11:27.721Z,6.88
2022-12-07T18:14:13.540Z,7.25
2022-12-07T18:16:58.994Z,7.80
2022-12-07T18:19:44.591Z,9.23
2022-12-07T18:22:30.074Z,7.10
2022-12-07T18:25:15.855Z,8.23
2022-12-07T18:28:01.421Z,8.43
2022-12-07T18:34:12.167Z,7.57
2022-12-07T18:36:58.160Z,8.82
2022-12-07T18:39:43.439Z,9.70
2022-12-07T18:42:28.979Z,8.38
2022-12-07T18:45:15.268Z,9.07
2022-12-07T18:48:00.413Z,8.38
2022-12-07T18:50:47.577Z,8.15
2022-12-07T18:53:34.857Z,8.15
2022-12-07T18:56:23.338Z,9.15
2022-12-07T19:00:25.159Z,10.23
2022-12-07T19:03:10.621Z,8.45
2022-12-07T19:05:57.873Z,8.48
2022-12-07T19:08:43.100Z,10.07
2022-12-07T19:11:49.572Z,9.40
2022-12-07T19:14:37.727Z,11.05
2022-12-07T19:17:23.952Z,10.25
2022-12-07T19:20:12.865Z,10.32
2022-12-07T19:22:58.342Z,11.77
2022-12-07T19:25:43.810Z,11.07
2022-12-07T19:28:29.351Z,10.30
2022-12-07T19:31:15.290Z,9.88
2022-12-07T19:34:00.874Z,9.60
2022-12-07T19:36:46.924Z,10.10
2022-12-07T19:39:32.664Z,9.10
2022-12-07T19:42:18.592Z,9.93
2022-12-07T19:45:05.105Z,10.55
2022-12-07T19:47:51.123Z,11.77
2022-12-07T19:50:36.611Z,11.57
2022-12-07T19:53:21.949Z,12.27
2022-12-07T19:56:08.170Z,11.73
2022-12-07T19:58:54.781Z,12.57
2022-12-07T20:01:41.006Z,12.20
2022-12-07T20:04:31.301Z,12.93
2022-12-07T20:07:16.601Z,13.52
2022-12-07T20:10:02.165Z,12.88
2022-12-07T20:13:06.107Z,14.02
2022-12-07T20:15:51.945Z,12.63
2022-12-07T20:18:37.317Z,13.90
2022-12-07T20:21:23.922Z,13.02
2022-12-07T20:24:12.882Z,14.00
2022-12-07T20:26:58.524Z,13.70
2022-12-07T20:29:44.257Z,14.65
2022-12-07T20:32:29.809Z,13.43
2022-12-07T20:35:15.403Z,13.45
2022-12-07T20:38:00.621Z,11.80
2022-12-07T20:40:48.751Z,13.05
2022-12-07T20:43:34.619Z,14.15
2022-12-07T20:46:20.157Z,13.75
2022-12-07T20:49:06.061Z,13.77
2022-12-07T20:51:51.900Z,13.40
2022-12-07T20:54:37.303Z,16.15
2022-12-07T20:57:23.004Z,15.43
2022-12-07T21:00:09.205Z,15.27
2022-12-07T21:02:56.898Z,15.02
2022-12-07T21:05:47.451Z,14.93
2022-12-07T21:08:35.690Z,13.07
2022-12-07T21:11:21.905Z,13.38
2022-12-07T21:14:08.420Z,14.45
2022-12-07T21:16:54.009Z,13.07
2022-12-07T21:19:40.803Z,14.18
2022-12-07T21:22:26.259Z,13.30
2022-12-07T21:25:11.745Z,12.75
2022-12-07T21:27:59.536Z,14.35
2022-12-07T21:31:11.464Z,13.85
2022-12-07T21:33:50.952Z,13.88
2022-12-07T21:36:36.899Z,15.23
2022-12-07T21:39:22.114Z,13.23
2022-12-07T21:42:08.929Z,14.55
2022-12-07T21:44:54.298Z,12.98
2022-12-07T21:47:39.761Z,13.48
2022-12-07T21:50:25.571Z,13.45
2022-12-07T21:53:11.252Z,15.07
2022-12-07T21:55:56.341Z,15.23
2022-12-07T21:58:41.921Z,16.35
2022-12-07T22:01:30.151Z,14.68
2022-12-07T22:04:24.236Z,15.35
2022-12-07T22:07:09.646Z,14.55
2022-12-07T22:09:54.940Z,14.57
2022-12-07T22:12:40.598Z,15.38
2022-12-07T22:15:28.302Z,14.73
2022-12-07T22:18:13.857Z,14.23
2022-12-07T22:21:00.527Z,14.07
2022-12-07T22:23:47.275Z,14.30
2022-12-07T22:26:33.913Z,14.60
2022-12-07T22:29:21.092Z,14.68
2022-12-07T22:32:39.471Z,15.10
2022-12-07T22:35:13.072Z,13.75
2022-12-07T22:37:58.679Z,14.40
2022-12-07T22:40:44.150Z,13.35
2022-12-07T22:43:29.905Z,13.23
2022-12-07T22:46:15.681Z,13.32
2022-12-07T22:49:02.227Z,14.40
2022-12-07T22:51:48.185Z,14.27
2022-12-07T22:54:33.775Z,14.23
2022-12-07T22:57:19.676Z,14.55
2022-12-07T23:00:09.081Z,14.35
2022-12-07T23:02:54.299Z,15.15
2022-12-07T23:05:44.843Z,13.77
2022-12-07T23:08:30.945Z,14.57
2022-12-07T23:11:38.842Z,14.38
2022-12-07T23:14:29.346Z,12.88
2022-12-07T23:17:15.051Z,14.35
2022-12-07T23:20:00.509Z,15.05
2022-12-07T23:22:46.518Z,13.98
2022-12-07T23:25:33.243Z,13.57
2022-12-07T23:28:18.958Z,14.02
2022-12-07T23:31:15.138Z,13.75
2022-12-07T23:34:01.669Z,14.88
2022-12-07T23:36:48.130Z,14.60
2022-12-07T23:39:34.163Z,13.73
2022-12-07T23:42:20.091Z,14.60
2022-12-07T23:45:06.504Z,14.68
2022-12-07T23:47:52.439Z,13.75
2022-12-07T23:50:38.628Z,13.93
2022-12-07T23:53:23.974Z,13.52
2022-12-07T23:56:14.358Z,13.82
2022-12-07T23:59:00.967Z,14.80
